createdAt,value
2016-12-17T00:00:05.342Z,99.99
2016-12-17T00:05:04.950Z,99.99
2016-12-17T00:10:04.384Z,99.9
2016-12-17T00:15:05.044Z,99.99
2016-12-17T00:20:05.166Z,99.9
2016-12-17T00:25:04.642Z,99.99
2016-12-17T00:30:04.612Z,99.99
2016-12-17T00:35:04.524Z,99.9
2016-12-17T00:40:04.366Z,99.62
2016-12-17T00:45:04.926Z,99.62
2016-12-17T00:50:04.600Z,99.99
2016-12-17T00:55:04.538Z,99.62
2016-12-17T01:00:04.599Z,99.43
2016-12-17T01:05:04.515Z,99.15
2016-12-17T01:10:04.545Z,98.86
2016-12-17T01:15:05.232Z,98.58
2016-12-17T01:20:05.102Z,98.49
2016-12-17T01:25:04.472Z,98.39
2016-12-17T01:30:04.362Z,98.39
2016-12-17T01:35:05.324Z,98.39
2016-12-17T01:40:05.230Z,98.49
2016-12-17T01:45:05.294Z,98.58
2016-12-17T01:50:04.704Z,98.49
2016-12-17T01:55:04.847Z,98.01
2016-12-17T02:00:05.230Z,97.63
2016-12-17T02:05:04.886Z,97.25
2016-12-17T02:10:04.897Z,96.88
2016-12-17T02:15:04.795Z,96.31
2016-12-17T02:20:05.359Z,95.98
2016-12-17T02:25:05.140Z,95.5
2016-12-17T02:30:04.690Z,95.03
2016-12-17T02:35:05.318Z,94.27
2016-12-17T02:40:05.180Z,93.61
2016-12-17T02:45:05.205Z,93.32
2016-12-17T02:50:04.483Z,93.7
2016-12-17T02:55:05.061Z,93.7
2016-12-17T03:00:05.504Z,93.51
2016-12-17T03:05:04.848Z,93.42
2016-12-17T03:10:04.990Z,93.23
2016-12-17T03:15:04.760Z,92.94
2016-12-17T03:20:04.608Z,92.28
2016-12-17T03:25:05.175Z,92
2016-12-17T03:30:04.400Z,91.71
2016-12-17T03:35:04.511Z,91.71
2016-12-17T03:40:04.711Z,91.81
2016-12-17T03:45:04.516Z,91.81
2016-12-17T03:50:04.602Z,92
2016-12-17T03:55:05.215Z,92
2016-12-17T04:00:05.477Z,91.81
2016-12-17T04:05:05.290Z,91.81
2016-12-17T04:10:05.156Z,92.19
2016-12-17T04:15:04.851Z,92.57
2016-12-17T04:20:04.752Z,93.04
2016-12-17T04:25:04.780Z,93.61
2016-12-17T04:30:04.489Z,93.7
2016-12-17T04:35:04.307Z,93.7
2016-12-17T04:40:04.770Z,93.61
2016-12-17T04:45:05.263Z,93.61
2016-12-17T04:50:05.019Z,93.61
2016-12-17T04:55:04.474Z,93.51
2016-12-17T05:00:04.813Z,93.61
2016-12-17T05:05:05.183Z,93.61
2016-12-17T05:10:04.874Z,93.61
2016-12-17T05:15:04.673Z,93.32
2016-12-17T05:20:05.384Z,93.23
2016-12-17T05:25:05.270Z,93.32
2016-12-17T05:30:05.049Z,93.23
2016-12-17T05:35:04.724Z,93.13
2016-12-17T05:40:04.538Z,93.23
2016-12-17T05:45:05.352Z,93.42
2016-12-17T05:50:05.191Z,93.8
2016-12-17T05:55:04.690Z,94.37
2016-12-17T06:00:04.819Z,94.84
2016-12-17T06:05:04.513Z,95.03
2016-12-17T06:10:04.703Z,95.22
2016-12-17T06:15:04.814Z,95.12
2016-12-17T06:20:05.242Z,95.12
2016-12-17T06:25:04.996Z,95.03
2016-12-17T06:30:05.043Z,95.03
2016-12-17T06:35:04.678Z,94.74
2016-12-17T06:40:04.697Z,94.56
2016-12-17T06:45:04.742Z,94.27
2016-12-17T06:50:05.298Z,93.99
2016-12-17T06:55:04.557Z,93.42
2016-12-17T07:00:05.665Z,92.94
2016-12-17T07:05:05.343Z,92
2016-12-17T07:10:04.606Z,91.24
2016-12-17T07:15:04.846Z,90.48
2016-12-17T07:20:04.760Z,89.91
2016-12-17T07:25:05.345Z,89.82
2016-12-17T07:30:05.329Z,89.34
2016-12-17T07:35:04.559Z,89.15
2016-12-17T07:40:04.761Z,89.06
2016-12-17T07:45:04.547Z,88.59
2016-12-17T07:50:05.388Z,88.96
2016-12-17T07:55:04.932Z,89.06
2016-12-17T08:00:04.683Z,89.15
2016-12-17T08:05:04.726Z,88.78
2016-12-17T08:10:04.659Z,88.68
2016-12-17T08:15:04.593Z,88.68
2016-12-17T08:20:05.151Z,87.92
2016-12-17T08:25:04.978Z,86.98
2016-12-17T08:30:04.797Z,86.5
2016-12-17T08:35:05.044Z,86.31
2016-12-17T08:40:04.729Z,86.31
2016-12-17T08:45:04.475Z,86.79
2016-12-17T08:50:04.952Z,87.16
2016-12-17T08:55:04.569Z,87.07
2016-12-17T09:00:05.090Z,87.26
2016-12-17T09:05:04.872Z,87.83
2016-12-17T09:10:04.855Z,87.77
2016-12-17T09:15:04.612Z,87.97
2016-12-17T09:20:04.602Z,87.59
2016-12-17T09:25:04.388Z,87.49
2016-12-17T09:30:04.641Z,87.59
2016-12-17T09:35:04.571Z,87.68
2016-12-17T09:40:05.208Z,87.59
2016-12-17T09:45:05.156Z,87.97
2016-12-17T09:50:05.170Z,87.87
2016-12-17T09:55:04.687Z,88.16
2016-12-17T10:00:04.372Z,90.34
2016-12-17T10:05:05.126Z,89.77
2016-12-17T10:10:05.417Z,89.96
2016-12-17T10:15:04.903Z,90.62
2016-12-17T10:20:04.525Z,91.19
2016-12-17T10:25:05.254Z,91.66
2016-12-17T10:30:05.063Z,92.23
2016-12-17T10:35:05.219Z,92.94
2016-12-17T10:40:04.976Z,93.23
2016-12-17T10:45:05.263Z,93.23
2016-12-17T10:50:04.960Z,94.93
2016-12-17T10:55:04.512Z,95.6
2016-12-17T11:00:05.052Z,95.98
2016-12-17T11:05:04.548Z,96.26
2016-12-17T11:10:05.219Z,96.17
2016-12-17T11:15:05.159Z,95.5
2016-12-17T11:20:04.501Z,96.26
2016-12-17T11:25:05.225Z,96.5
2016-12-17T11:30:04.547Z,97.07
2016-12-17T11:35:04.604Z,97.07
2016-12-17T11:40:05.056Z,96.97
2016-12-17T11:45:05.334Z,97.17
2016-12-17T11:50:04.633Z,98.02
2016-12-17T11:55:04.655Z,98.11
2016-12-17T12:00:04.741Z,98.4
2016-12-17T12:05:04.587Z,98.87
2016-12-17T12:10:04.916Z,99.26
2016-12-17T12:15:04.841Z,99.54
2016-12-17T12:20:04.281Z,99.99
2016-12-17T12:25:05.223Z,99.99
2016-12-17T12:30:05.304Z,99.99
2016-12-17T12:35:04.695Z,99.99
2016-12-17T12:40:05.413Z,99.99
2016-12-17T12:45:04.838Z,99.99
2016-12-17T12:50:05.084Z,99.99
2016-12-17T12:55:05.013Z,99.99
2016-12-17T13:00:05.292Z,99.99
2016-12-17T13:05:05.306Z,99.99
2016-12-17T13:10:04.902Z,99.99
2016-12-17T13:15:05.168Z,99.99
2016-12-17T13:20:04.496Z,99.99
2016-12-17T13:25:04.635Z,99.99
2016-12-17T13:30:05.354Z,99.99
2016-12-17T13:35:04.669Z,99.99
2016-12-17T13:40:04.569Z,99.99
2016-12-17T13:45:04.782Z,99.99
2016-12-17T13:50:05.129Z,99.99
2016-12-17T13:55:04.557Z,99.99
2016-12-17T14:00:04.745Z,99.99
2016-12-17T14:05:05.322Z,99.99
2016-12-17T14:10:04.601Z,99.99
2016-12-17T14:15:05.262Z,99.99
2016-12-17T14:20:04.399Z,99.99
2016-12-17T14:25:05.313Z,99.99
2016-12-17T14:30:04.475Z,99.99
2016-12-17T14:35:05.203Z,99.99
2016-12-17T14:40:04.950Z,99.99
2016-12-17T14:45:05.150Z,99.99
2016-12-17T14:50:04.325Z,99.99
2016-12-17T14:55:05.150Z,99.99
2016-12-17T15:00:04.413Z,99.99
2016-12-17T15:05:05.115Z,99.99
2016-12-17T15:10:04.667Z,99.99
2016-12-17T15:15:05.031Z,99.99
2016-12-17T15:20:05.260Z,99.99
2016-12-17T15:25:04.653Z,99.99
2016-12-17T15:30:04.342Z,99.99
2016-12-17T15:35:05.108Z,99.99
2016-12-17T15:40:05.161Z,99.82
2016-12-17T15:45:04.734Z,99.06
2016-12-17T15:50:05.144Z,98.4
2016-12-17T15:55:04.789Z,97.74
2016-12-17T16:00:04.527Z,95.55
2016-12-17T16:05:04.691Z,93.94
2016-12-17T16:10:04.401Z,92.99
2016-12-17T16:15:04.544Z,91.09
2016-12-17T16:20:04.347Z,89.95
2016-12-17T16:25:05.277Z,88.91
2016-12-17T16:30:04.632Z,87.87
2016-12-17T16:35:04.302Z,87.01
2016-12-17T16:40:05.280Z,84.74
2016-12-17T16:45:04.658Z,83.69
2016-12-17T16:50:05.396Z,82.74
2016-12-17T16:55:05.204Z,81.6
2016-12-17T17:00:05.511Z,80.84
2016-12-17T17:05:05.208Z,79.42
2016-12-17T17:10:05.306Z,78.47
2016-12-17T17:15:05.101Z,77.52
2016-12-17T17:20:05.352Z,76.67
2016-12-17T17:25:05.094Z,75.53
2016-12-17T17:30:04.377Z,74.39
2016-12-17T17:35:04.594Z,73.82
2016-12-17T17:40:05.184Z,73.07
2016-12-17T17:45:04.522Z,72.3
2016-12-17T17:50:05.117Z,71.73
2016-12-17T17:55:04.660Z,71.26
2016-12-17T18:00:05.368Z,71.07
2016-12-17T18:05:05.152Z,70.5
2016-12-17T18:10:05.047Z,69.84
2016-12-17T18:15:04.965Z,69.46
2016-12-17T18:20:04.727Z,68.89
2016-12-17T18:25:05.148Z,68.51
2016-12-17T18:30:04.573Z,67.94
2016-12-17T18:35:05.306Z,67.56
2016-12-17T18:40:05.322Z,67.08
2016-12-17T18:45:04.758Z,66.61
2016-12-17T18:50:04.585Z,66.14
2016-12-17T18:55:05.110Z,65.85
2016-12-17T19:00:04.895Z,65.56
2016-12-17T19:05:04.550Z,65.09
2016-12-17T19:10:04.299Z,64.71
2016-12-17T19:15:04.691Z,64.24
2016-12-17T19:20:04.455Z,63.95
2016-12-17T19:25:04.827Z,63.76
2016-12-17T19:30:05.364Z,63.39
2016-12-17T19:35:04.757Z,62.91
2016-12-17T19:40:05.142Z,62.62
2016-12-17T19:45:05.310Z,62.34
2016-12-17T19:50:04.694Z,61.96
2016-12-17T19:55:04.918Z,61.49
2016-12-17T20:00:05.306Z,61.3
2016-12-17T20:05:04.706Z,61.01
2016-12-17T20:10:04.944Z,60.73
2016-12-17T20:15:04.666Z,60.44
2016-12-17T20:20:05.003Z,60.16
2016-12-17T20:25:05.171Z,59.88
2016-12-17T20:30:04.714Z,59.68
2016-12-17T20:35:04.529Z,59.49
2016-12-17T20:40:04.969Z,59.11
2016-12-17T20:45:05.244Z,58.92
2016-12-17T20:50:04.836Z,58.73
2016-12-17T20:55:05.471Z,58.45
2016-12-17T21:00:04.890Z,58.26
2016-12-17T21:05:05.129Z,58.07
2016-12-17T21:10:05.375Z,57.88
2016-12-17T21:15:04.610Z,57.59
2016-12-17T21:20:05.237Z,57.4
2016-12-17T21:25:04.451Z,57.21
2016-12-17T21:30:04.707Z,57.03
2016-12-17T21:35:04.683Z,56.93
2016-12-17T21:40:04.585Z,56.74
2016-12-17T21:45:05.486Z,56.55
2016-12-17T21:50:04.524Z,56.36
2016-12-17T21:55:04.576Z,56.17
2016-12-17T22:00:05.233Z,56.08
2016-12-17T22:05:04.526Z,55.79
2016-12-17T22:10:05.243Z,55.7
2016-12-17T22:15:05.242Z,55.6
2016-12-17T22:20:04.667Z,55.51
2016-12-17T22:25:04.869Z,55.35
2016-12-17T22:30:04.899Z,55.16
2016-12-17T22:35:05.222Z,55.06
2016-12-17T22:40:04.431Z,54.87
2016-12-17T22:45:04.788Z,54.78
2016-12-17T22:50:04.565Z,54.49
2016-12-17T22:55:04.928Z,54.39
2016-12-17T23:00:04.711Z,54.21
2016-12-17T23:05:04.979Z,54.11
2016-12-17T23:10:04.875Z,53.92
2016-12-17T23:15:05.252Z,53.83
2016-12-17T23:20:04.716Z,53.73
2016-12-17T23:25:05.011Z,53.54
2016-12-17T23:30:04.908Z,53.35
2016-12-17T23:35:05.253Z,53.16
2016-12-17T23:40:04.750Z,53.16
2016-12-17T23:45:04.539Z,53.07
2016-12-17T23:50:05.124Z,52.97
2016-12-17T23:55:05.074Z,52.78
